createdAt,value
2018-08-29T00:00:51.437Z,1010.69
2018-08-29T00:01:51.447Z,1010.70
2018-08-29T00:03:44.358Z,1010.67
2018-08-29T00:04:44.379Z,1010.67
2018-08-29T00:06:37.298Z,1010.68
2018-08-29T00:07:37.308Z,1010.66
2018-08-29T00:09:30.268Z,1010.64
2018-08-29T00:10:30.238Z,1010.65
2018-08-29T00:12:23.144Z,1010.63
2018-08-29T00:13:23.164Z,1010.67
2018-08-29T00:15:16.082Z,1010.66
2018-08-29T00:16:16.086Z,1010.65
2018-08-29T00:18:08.998Z,1010.62
2018-08-29T00:19:09.024Z,1010.64
2018-08-29T00:21:01.937Z,1010.63
2018-08-29T00:22:01.952Z,1010.60
2018-08-29T00:23:54.854Z,1010.57
2018-08-29T00:24:54.875Z,1010.55
2018-08-29T00:26:47.818Z,1010.54
2018-08-29T00:27:47.826Z,1010.51
2018-08-29T00:29:40.757Z,1010.49
2018-08-29T00:30:40.756Z,1010.53
2018-08-29T00:32:33.687Z,1010.54
2018-08-29T00:33:33.688Z,1010.51
2018-08-29T00:35:26.606Z,1010.50
2018-08-29T00:36:26.612Z,1010.49
2018-08-29T00:38:19.523Z,1010.49
2018-08-29T00:39:19.541Z,1010.45
2018-08-29T00:41:13.503Z,1010.52
2018-08-29T00:42:13.477Z,1010.48
2018-08-29T00:44:06.365Z,1010.49
2018-08-29T00:45:06.393Z,1010.48
2018-08-29T00:46:59.312Z,1010.50
2018-08-29T00:47:59.321Z,1010.45
2018-08-29T00:49:52.760Z,1010.41
2018-08-29T00:50:52.770Z,1010.38
2018-08-29T00:52:45.682Z,1010.38
2018-08-29T00:53:45.700Z,1010.37
2018-08-29T00:55:38.621Z,1010.35
2018-08-29T00:56:38.628Z,1010.35
2018-08-29T00:58:31.536Z,1010.36
2018-08-29T00:59:31.556Z,1010.34
2018-08-29T01:01:24.471Z,1010.36
2018-08-29T01:02:24.481Z,1010.30
2018-08-29T01:04:17.414Z,1010.30
2018-08-29T01:05:17.412Z,1010.28
2018-08-29T01:07:10.329Z,1010.29
2018-08-29T01:08:10.343Z,1010.30
2018-08-29T01:10:03.270Z,1010.29
2018-08-29T01:11:03.265Z,1010.33
2018-08-29T01:12:56.188Z,1010.32
2018-08-29T01:13:56.193Z,1010.35
2018-08-29T01:15:49.120Z,1010.34
2018-08-29T01:16:49.120Z,1010.31
2018-08-29T01:18:42.026Z,1010.29
2018-08-29T01:19:42.047Z,1010.30
2018-08-29T01:21:34.962Z,1010.30
2018-08-29T01:22:34.973Z,1010.30
2018-08-29T01:24:27.886Z,1010.32
2018-08-29T01:25:27.906Z,1010.35
2018-08-29T01:27:20.821Z,1010.41
2018-08-29T01:28:20.831Z,1010.43
2018-08-29T01:30:13.747Z,1010.43
2018-08-29T01:31:13.759Z,1010.38
2018-08-29T01:33:06.667Z,1010.37
2018-08-29T01:34:06.705Z,1010.39
2018-08-29T01:35:59.602Z,1010.36
2018-08-29T01:36:59.610Z,1010.35
2018-08-29T01:38:52.516Z,1010.34
2018-08-29T01:39:52.549Z,1010.36
2018-08-29T01:41:45.455Z,1010.36
2018-08-29T01:42:45.467Z,1010.37
2018-08-29T01:44:38.375Z,1010.37
2018-08-29T01:45:38.400Z,1010.40
2018-08-29T01:47:31.856Z,1010.35
2018-08-29T01:48:31.324Z,1010.33
2018-08-29T01:50:24.245Z,1010.30
2018-08-29T01:51:24.253Z,1010.32
2018-08-29T01:53:17.171Z,1010.30
2018-08-29T01:54:17.182Z,1010.26
2018-08-29T01:56:10.098Z,1010.27
2018-08-29T01:57:10.110Z,1010.27
2018-08-29T01:59:03.020Z,1010.26
2018-08-29T02:00:03.040Z,1010.23
2018-08-29T02:01:55.949Z,1010.27
2018-08-29T02:02:55.961Z,1010.28
2018-08-29T02:04:49.039Z,1010.29
2018-08-29T02:05:49.059Z,1010.26
2018-08-29T02:07:41.976Z,1010.26
2018-08-29T02:08:41.982Z,1010.20
2018-08-29T02:10:34.909Z,1010.09
2018-08-29T02:11:34.910Z,1010.10
2018-08-29T02:13:27.965Z,1010.06
2018-08-29T02:14:27.978Z,1010.07
2018-08-29T02:16:20.895Z,1010.10
2018-08-29T02:17:20.913Z,1010.06
2018-08-29T02:19:13.809Z,1010.06
2018-08-29T02:20:13.829Z,1010.04
2018-08-29T02:22:06.748Z,1010.00
2018-08-29T02:23:06.759Z,1010.00
2018-08-29T02:24:59.664Z,1009.92
2018-08-29T02:25:59.687Z,1009.87
2018-08-29T02:27:52.611Z,1009.79
2018-08-29T02:28:52.612Z,1009.82
2018-08-29T02:30:45.520Z,1009.76
2018-08-29T02:31:45.540Z,1009.72
2018-08-29T02:33:38.459Z,1009.62
2018-08-29T02:34:38.467Z,1009.62
2018-08-29T02:36:31.386Z,1009.58
2018-08-29T02:37:31.393Z,1009.56
2018-08-29T02:39:24.302Z,1009.51
2018-08-29T02:40:24.320Z,1009.49
2018-08-29T02:42:17.250Z,1009.43
2018-08-29T02:43:17.246Z,1009.38
2018-08-29T02:45:10.154Z,1009.33
2018-08-29T02:46:10.176Z,1009.34
2018-08-29T02:48:03.107Z,1009.33
2018-08-29T02:49:03.118Z,1009.32
2018-08-29T02:50:56.023Z,1009.32
2018-08-29T02:51:56.045Z,1009.32
2018-08-29T02:53:48.958Z,1009.30
2018-08-29T02:54:48.969Z,1009.29
2018-08-29T02:56:41.888Z,1009.25
2018-08-29T02:57:41.892Z,1009.26
2018-08-29T02:59:34.800Z,1009.26
2018-08-29T03:00:34.817Z,1009.32
2018-08-29T03:02:27.742Z,1009.25
2018-08-29T03:03:27.743Z,1009.28
2018-08-29T03:05:20.651Z,1009.25
2018-08-29T03:06:20.667Z,1009.26
2018-08-29T03:08:13.582Z,1009.22
2018-08-29T03:09:13.586Z,1009.23
2018-08-29T03:11:06.499Z,1009.25
2018-08-29T03:12:06.514Z,1009.23
2018-08-29T03:13:59.434Z,1009.26
2018-08-29T03:14:59.444Z,1009.29
2018-08-29T03:16:52.361Z,1009.29
2018-08-29T03:17:52.370Z,1009.27
2018-08-29T03:19:45.287Z,1009.28
2018-08-29T03:20:45.311Z,1009.29
2018-08-29T03:22:38.221Z,1009.27
2018-08-29T03:23:38.232Z,1009.22
2018-08-29T03:25:31.140Z,1009.20
2018-08-29T03:26:31.211Z,1009.18
2018-08-29T03:28:24.073Z,1009.21
2018-08-29T03:29:24.084Z,1009.24
2018-08-29T03:31:16.988Z,1009.35
2018-08-29T03:32:17.009Z,1009.34
2018-08-29T03:34:09.926Z,1009.32
2018-08-29T03:35:09.934Z,1009.33
2018-08-29T03:37:02.859Z,1009.32
2018-08-29T03:38:02.866Z,1009.29
2018-08-29T03:39:55.773Z,1009.25
2018-08-29T03:40:55.793Z,1009.21
2018-08-29T03:42:48.706Z,1009.28
2018-08-29T03:43:48.716Z,1009.32
2018-08-29T03:45:41.617Z,1009.31
2018-08-29T03:46:41.641Z,1009.32
2018-08-29T03:48:34.561Z,1009.28
2018-08-29T03:49:34.568Z,1009.34
2018-08-29T03:51:27.480Z,1009.34
2018-08-29T03:52:27.496Z,1009.34
2018-08-29T03:54:20.463Z,1009.35
2018-08-29T03:55:20.416Z,1009.33
2018-08-29T03:57:13.336Z,1009.34
2018-08-29T03:58:13.343Z,1009.32
2018-08-29T04:00:06.409Z,1009.36
2018-08-29T04:01:06.426Z,1009.30
2018-08-29T04:02:59.358Z,1009.27
2018-08-29T04:03:59.461Z,1009.23
2018-08-29T04:05:52.279Z,1009.23
2018-08-29T04:06:52.282Z,1009.21
2018-08-29T04:08:45.198Z,1009.17
2018-08-29T04:09:45.206Z,1009.15
2018-08-29T04:11:38.666Z,1009.10
2018-08-29T04:12:38.132Z,1009.10
2018-08-29T04:14:31.061Z,1009.08
2018-08-29T04:15:31.063Z,1009.10
2018-08-29T04:17:23.985Z,1009.09
2018-08-29T04:18:23.996Z,1009.10
2018-08-29T04:20:16.893Z,1009.10
2018-08-29T04:21:16.912Z,1009.11
2018-08-29T04:23:09.969Z,1009.08
2018-08-29T04:24:09.983Z,1009.03
2018-08-29T04:26:02.886Z,1009.08
2018-08-29T04:27:02.904Z,1009.09
2018-08-29T04:28:55.969Z,1009.15
2018-08-29T04:29:55.980Z,1009.17
2018-08-29T04:31:48.890Z,1009.19
2018-08-29T04:32:48.908Z,1009.23
2018-08-29T04:34:41.971Z,1009.25
2018-08-29T04:35:41.983Z,1009.23
2018-08-29T04:37:34.902Z,1009.18
2018-08-29T04:38:34.907Z,1009.13
2018-08-29T04:40:27.812Z,1009.10
2018-08-29T04:41:27.833Z,1009.07
2018-08-29T04:43:20.748Z,1009.04
2018-08-29T04:44:20.756Z,1008.99
2018-08-29T04:46:13.663Z,1008.97
2018-08-29T04:47:13.680Z,1008.92
2018-08-29T04:49:06.599Z,1008.90
2018-08-29T04:50:06.605Z,1008.86
2018-08-29T04:51:59.508Z,1008.87
2018-08-29T04:52:59.528Z,1008.83
2018-08-29T04:54:52.446Z,1008.83
2018-08-29T04:55:52.455Z,1008.86
2018-08-29T04:57:45.372Z,1008.81
2018-08-29T04:58:45.378Z,1008.84
2018-08-29T05:00:38.293Z,1008.79
2018-08-29T05:01:46.426Z,1008.76
2018-08-29T05:03:31.217Z,1008.72
2018-08-29T05:04:31.220Z,1008.67
2018-08-29T05:06:24.128Z,1008.67
2018-08-29T05:07:24.144Z,1008.67
2018-08-29T05:09:17.063Z,1008.67
2018-08-29T05:10:17.075Z,1008.66
2018-08-29T05:12:10.180Z,1008.66
2018-08-29T05:13:10.199Z,1008.66
2018-08-29T05:15:03.116Z,1008.66
2018-08-29T05:16:03.123Z,1008.70
2018-08-29T05:17:56.058Z,1008.71
2018-08-29T05:18:56.058Z,1008.72
2018-08-29T05:20:48.959Z,1008.73
2018-08-29T05:21:48.980Z,1008.73
2018-08-29T05:23:41.893Z,1008.74
2018-08-29T05:24:41.965Z,1008.77
2018-08-29T05:26:34.811Z,1008.82
2018-08-29T05:27:34.831Z,1008.78
2018-08-29T05:29:27.762Z,1008.70
2018-08-29T05:30:27.775Z,1008.71
2018-08-29T05:32:20.679Z,1008.68
2018-08-29T05:33:20.697Z,1008.73
2018-08-29T05:35:13.612Z,1008.69
2018-08-29T05:36:13.620Z,1008.68
2018-08-29T05:38:06.529Z,1008.65
2018-08-29T05:39:06.548Z,1008.69
2018-08-29T05:40:59.462Z,1008.65
2018-08-29T05:41:59.469Z,1008.64
2018-08-29T05:43:52.387Z,1008.59
2018-08-29T05:44:52.398Z,1008.57
2018-08-29T05:46:45.307Z,1008.56
2018-08-29T05:47:45.421Z,1008.53
2018-08-29T05:49:38.250Z,1008.53
2018-08-29T05:50:38.256Z,1008.54
2018-08-29T05:52:31.173Z,1008.54
2018-08-29T05:53:31.185Z,1008.53
2018-08-29T05:55:24.168Z,1008.51
2018-08-29T05:56:24.113Z,1008.51
2018-08-29T05:58:17.020Z,1008.51
2018-08-29T05:59:17.041Z,1008.48
2018-08-29T06:01:09.985Z,1008.43
2018-08-29T06:02:09.971Z,1008.41
2018-08-29T06:04:02.888Z,1008.37
2018-08-29T06:05:02.900Z,1008.33
2018-08-29T06:06:55.801Z,1008.28
2018-08-29T06:07:55.822Z,1008.27
2018-08-29T06:09:48.799Z,1008.21
2018-08-29T06:10:48.755Z,1008.24
2018-08-29T06:12:41.670Z,1008.21
2018-08-29T06:13:41.685Z,1008.18
2018-08-29T06:15:34.604Z,1008.11
2018-08-29T06:16:34.630Z,1008.11
2018-08-29T06:18:27.553Z,1008.07
2018-08-29T06:19:27.550Z,1008.09
2018-08-29T06:21:20.479Z,1008.03
2018-08-29T06:22:20.493Z,1008.07
2018-08-29T06:24:13.412Z,1008.08
2018-08-29T06:25:13.424Z,1008.05
2018-08-29T06:27:06.341Z,1008.05
2018-08-29T06:28:06.359Z,1008.04
2018-08-29T06:29:59.286Z,1008.07
2018-08-29T06:30:59.297Z,1008.09
2018-08-29T06:32:52.219Z,1008.06
2018-08-29T06:33:52.241Z,1008.06
2018-08-29T06:35:45.178Z,1008.13
2018-08-29T06:36:45.205Z,1008.12
2018-08-29T06:38:38.110Z,1008.15
2018-08-29T06:39:38.182Z,1008.21
2018-08-29T06:41:31.062Z,1008.26
2018-08-29T06:42:31.075Z,1008.32
2018-08-29T06:44:24.000Z,1008.38
2018-08-29T06:45:24.015Z,1008.44
2018-08-29T06:47:16.932Z,1008.50
2018-08-29T06:48:16.964Z,1008.53
2018-08-29T06:50:09.885Z,1008.57
2018-08-29T06:51:09.900Z,1008.61
2018-08-29T06:53:02.822Z,1008.66
2018-08-29T06:54:02.845Z,1008.69
2018-08-29T06:55:55.767Z,1008.75
2018-08-29T06:56:55.787Z,1008.75
2018-08-29T06:58:48.706Z,1008.75
2018-08-29T06:59:48.733Z,1008.76
2018-08-29T07:01:41.659Z,1008.72
2018-08-29T07:02:41.676Z,1008.67
2018-08-29T07:04:34.600Z,1008.65
2018-08-29T07:05:34.616Z,1008.69
2018-08-29T07:07:27.553Z,1008.66
2018-08-29T07:08:27.558Z,1008.67
2018-08-29T07:10:20.486Z,1008.63
2018-08-29T07:11:20.499Z,1008.64
2018-08-29T07:13:13.435Z,1008.58
2018-08-29T07:14:13.438Z,1008.60
2018-08-29T07:16:06.407Z,1008.61
2018-08-29T07:17:06.378Z,1008.65
2018-08-29T07:18:59.317Z,1008.62
2018-08-29T07:19:59.341Z,1008.60
2018-08-29T07:21:52.267Z,1008.55
2018-08-29T07:22:52.353Z,1008.54
2018-08-29T07:24:45.212Z,1008.57
2018-08-29T07:25:45.224Z,1008.60
2018-08-29T07:27:38.137Z,1008.62
2018-08-29T07:28:38.164Z,1008.65
2018-08-29T07:30:31.086Z,1008.68
2018-08-29T07:31:31.099Z,1008.69
2018-08-29T07:33:24.021Z,1008.76
2018-08-29T07:34:24.048Z,1008.80
2018-08-29T07:36:17.046Z,1008.82
2018-08-29T07:37:16.984Z,1008.80
2018-08-29T07:39:09.895Z,1008.80
2018-08-29T07:40:09.920Z,1008.79
2018-08-29T07:42:02.923Z,1008.81
2018-08-29T07:43:02.863Z,1008.83
2018-08-29T07:44:55.782Z,1008.84
2018-08-29T07:45:55.795Z,1008.85
2018-08-29T07:47:48.716Z,1008.85
2018-08-29T07:48:48.739Z,1008.81
2018-08-29T07:50:41.662Z,1008.79
2018-08-29T07:51:41.678Z,1008.78
2018-08-29T07:53:34.593Z,1008.80
2018-08-29T07:54:34.616Z,1008.79
2018-08-29T07:56:27.537Z,1008.76
2018-08-29T07:57:27.553Z,1008.76
2018-08-29T07:59:20.471Z,1008.81
2018-08-29T08:00:20.491Z,1008.81
2018-08-29T08:02:13.419Z,1008.77
2018-08-29T08:03:13.447Z,1008.72
2018-08-29T08:05:06.365Z,1008.67
2018-08-29T08:06:06.372Z,1008.65
2018-08-29T08:07:59.492Z,1008.61
2018-08-29T08:08:59.700Z,1008.56
2018-08-29T08:10:52.252Z,1008.50
2018-08-29T08:11:52.257Z,1008.49
2018-08-29T08:13:45.175Z,1008.43
2018-08-29T08:14:45.195Z,1008.40
2018-08-29T08:16:38.169Z,1008.41
2018-08-29T08:17:38.158Z,1008.41
2018-08-29T08:19:31.077Z,1008.41
2018-08-29T08:20:31.099Z,1008.34
2018-08-29T08:22:24.022Z,1008.30
2018-08-29T08:23:24.038Z,1008.25
2018-08-29T08:25:16.952Z,1008.22
2018-08-29T08:26:16.976Z,1008.17
2018-08-29T08:28:09.901Z,1008.12
2018-08-29T08:29:09.964Z,1008.11
2018-08-29T08:31:02.858Z,1008.03
2018-08-29T08:32:02.872Z,1008.02
2018-08-29T08:33:55.794Z,1007.99
2018-08-29T08:34:55.817Z,1007.95
2018-08-29T08:36:48.750Z,1007.87
2018-08-29T08:37:48.762Z,1007.86
2018-08-29T08:39:41.678Z,1007.81
2018-08-29T08:40:41.775Z,1007.78
2018-08-29T08:42:34.629Z,1007.73
2018-08-29T08:43:34.645Z,1007.77
2018-08-29T08:45:27.563Z,1007.71
2018-08-29T08:46:27.584Z,1007.66
2018-08-29T08:48:20.666Z,1007.64
2018-08-29T08:49:20.999Z,1007.61
2018-08-29T08:51:13.465Z,1007.58
2018-08-29T08:52:13.472Z,1007.59
2018-08-29T08:54:06.388Z,1007.67
2018-08-29T08:55:06.412Z,1007.71
2018-08-29T08:56:59.339Z,1007.73
2018-08-29T08:57:59.355Z,1007.80
2018-08-29T08:59:52.309Z,1007.78
2018-08-29T09:00:52.301Z,1007.79
2018-08-29T09:02:45.383Z,1007.83
2018-08-29T09:03:45.400Z,1007.82
2018-08-29T09:05:38.315Z,1007.85
2018-08-29T09:06:38.388Z,1007.88
2018-08-29T09:08:32.264Z,1007.88
2018-08-29T09:09:32.336Z,1007.89
2018-08-29T09:11:25.207Z,1007.89
2018-08-29T09:12:25.226Z,1007.88
2018-08-29T09:14:18.168Z,1007.85
2018-08-29T09:15:18.163Z,1007.88
2018-08-29T09:17:11.091Z,1007.83
2018-08-29T09:18:11.107Z,1007.85
2018-08-29T09:20:04.028Z,1007.86
2018-08-29T09:21:11.168Z,1007.85
2018-08-29T09:22:56.975Z,1007.81
2018-08-29T09:23:56.996Z,1007.80
2018-08-29T09:25:49.908Z,1007.82
2018-08-29T09:26:49.937Z,1007.80
2018-08-29T09:28:43.077Z,1007.73
2018-08-29T09:29:42.880Z,1007.69
2018-08-29T09:31:35.832Z,1007.72
2018-08-29T09:32:35.825Z,1007.72
2018-08-29T09:34:28.743Z,1007.72
2018-08-29T09:35:28.770Z,1007.65
2018-08-29T09:37:21.696Z,1007.58
2018-08-29T09:38:21.787Z,1007.54
2018-08-29T09:40:14.634Z,1007.52
2018-08-29T09:41:14.649Z,1007.53
2018-08-29T09:43:07.634Z,1007.55
2018-08-29T09:44:07.609Z,1007.54
2018-08-29T09:46:00.556Z,1007.44
2018-08-29T09:47:00.624Z,1007.47
2018-08-29T09:48:53.501Z,1007.44
2018-08-29T09:49:53.520Z,1007.35
2018-08-29T09:51:46.445Z,1007.34
2018-08-29T09:52:46.462Z,1007.28
2018-08-29T09:54:39.380Z,1007.21
2018-08-29T09:55:39.414Z,1007.21
2018-08-29T09:57:32.335Z,1007.15
2018-08-29T09:58:32.358Z,1007.15
2018-08-29T10:00:25.276Z,1007.14
2018-08-29T10:01:25.299Z,1007.19
2018-08-29T10:03:18.228Z,1007.17
2018-08-29T10:04:18.258Z,1007.14
2018-08-29T10:06:12.166Z,1007.12
2018-08-29T10:07:12.210Z,1007.12
2018-08-29T10:09:05.134Z,1007.14
2018-08-29T10:10:05.258Z,1007.08
2018-08-29T10:11:58.062Z,1007.11
2018-08-29T10:12:58.094Z,1007.04
2018-08-29T10:14:51.021Z,1007.00
2018-08-29T10:15:51.038Z,1006.97
2018-08-29T10:17:44.183Z,1006.98
2018-08-29T10:18:44.017Z,1007.01
2018-08-29T10:20:37.066Z,1006.99
2018-08-29T10:21:37.094Z,1006.98
2018-08-29T10:23:30.026Z,1006.93
2018-08-29T10:24:30.048Z,1006.92
2018-08-29T10:26:22.963Z,1006.97
2018-08-29T10:27:23.040Z,1006.89
2018-08-29T10:29:15.921Z,1006.82
2018-08-29T10:30:15.950Z,1006.86
2018-08-29T10:32:08.856Z,1006.83
2018-08-29T10:33:08.884Z,1006.85
2018-08-29T10:35:01.986Z,1006.84
2018-08-29T10:36:02.016Z,1006.82
2018-08-29T10:37:54.951Z,1006.72
2018-08-29T10:38:54.952Z,1006.68
2018-08-29T10:40:48.868Z,1006.61
2018-08-29T10:41:48.899Z,1006.61
2018-08-29T10:43:42.026Z,1006.59
2018-08-29T10:44:42.049Z,1006.61
2018-08-29T10:46:34.967Z,1006.57
2018-08-29T10:47:35.003Z,1006.55
2018-08-29T10:49:27.947Z,1006.56
2018-08-29T10:50:27.950Z,1006.56
2018-08-29T10:52:20.987Z,1006.55
2018-08-29T10:53:21.015Z,1006.55
2018-08-29T10:55:14.021Z,1006.51
2018-08-29T10:56:13.968Z,1006.53
2018-08-29T10:58:07.441Z,1006.56
2018-08-29T10:59:06.922Z,1006.58
2018-08-29T11:00:59.882Z,1006.61
2018-08-29T11:01:59.877Z,1006.61
2018-08-29T11:03:52.814Z,1006.58
2018-08-29T11:04:52.828Z,1006.58
2018-08-29T11:06:45.753Z,1006.63
2018-08-29T11:07:45.782Z,1006.60
2018-08-29T11:09:38.713Z,1006.56
2018-08-29T11:10:38.726Z,1006.55
2018-08-29T11:12:31.654Z,1006.54
2018-08-29T11:13:31.686Z,1006.55
2018-08-29T11:15:24.690Z,1006.61
2018-08-29T11:16:24.656Z,1006.59
2018-08-29T11:18:17.611Z,1006.58
2018-08-29T11:19:17.606Z,1006.56
2018-08-29T11:21:10.609Z,1006.55
2018-08-29T11:22:10.606Z,1006.50
2018-08-29T11:24:03.519Z,1006.50
2018-08-29T11:25:03.543Z,1006.57
2018-08-29T11:26:56.498Z,1006.53
2018-08-29T11:27:56.567Z,1006.53
2018-08-29T11:29:49.466Z,1006.52
2018-08-29T11:30:49.488Z,1006.52
2018-08-29T11:32:42.413Z,1006.56
2018-08-29T11:33:42.446Z,1006.55
2018-08-29T11:35:35.389Z,1006.54
2018-08-29T11:36:35.411Z,1006.56
2018-08-29T11:38:28.342Z,1006.52
2018-08-29T11:39:28.364Z,1006.50
2018-08-29T11:41:21.283Z,1006.53
2018-08-29T11:42:21.395Z,1006.51
2018-08-29T11:44:14.248Z,1006.50
2018-08-29T11:45:14.259Z,1006.53
2018-08-29T11:47:07.195Z,1006.52
2018-08-29T11:48:07.226Z,1006.56
2018-08-29T11:50:01.181Z,1006.46
2018-08-29T11:51:01.202Z,1006.43
2018-08-29T11:52:55.129Z,1006.36
2018-08-29T11:53:55.158Z,1006.35
2018-08-29T11:55:48.102Z,1006.35
2018-08-29T11:56:48.133Z,1006.32
2018-08-29T11:58:41.082Z,1006.32
2018-08-29T11:59:41.188Z,1006.29
2018-08-29T12:01:34.011Z,1006.28
2018-08-29T12:02:34.119Z,1006.32
2018-08-29T12:04:27.188Z,1006.30
2018-08-29T12:05:27.213Z,1006.31
2018-08-29T12:07:20.176Z,1006.33
2018-08-29T12:08:20.169Z,1006.31
2018-08-29T12:10:14.300Z,1006.31
2018-08-29T12:11:14.335Z,1006.28
2018-08-29T12:13:07.263Z,1006.26
2018-08-29T12:16:00.213Z,1006.18
2018-08-29T12:17:00.294Z,1006.16
2018-08-29T12:18:53.171Z,1006.15
2018-08-29T12:19:53.197Z,1006.15
2018-08-29T12:21:46.164Z,1006.16
2018-08-29T12:22:46.186Z,1006.13
2018-08-29T12:24:39.111Z,1006.12
2018-08-29T12:25:39.141Z,1006.09
2018-08-29T12:27:32.152Z,1006.08
2018-08-29T12:28:32.182Z,1006.06
2018-08-29T12:30:25.018Z,1005.95
2018-08-29T12:31:25.053Z,1005.92
2018-08-29T12:33:17.988Z,1005.94
2018-08-29T12:34:18.007Z,1005.91
2018-08-29T12:36:11.484Z,1005.85
2018-08-29T12:37:10.963Z,1005.86
2018-08-29T12:39:03.890Z,1005.83
2018-08-29T12:40:03.912Z,1005.82
2018-08-29T12:41:56.846Z,1005.78
2018-08-29T12:42:56.870Z,1005.82
2018-08-29T12:44:49.796Z,1005.76
2018-08-29T12:45:49.833Z,1005.79
2018-08-29T12:47:42.754Z,1005.77
2018-08-29T12:48:42.789Z,1005.76
2018-08-29T12:50:35.869Z,1005.72
2018-08-29T12:51:35.735Z,1005.73
2018-08-29T12:53:28.721Z,1005.72
2018-08-29T12:54:28.698Z,1005.67
2018-08-29T12:56:21.670Z,1005.65
2018-08-29T12:57:21.656Z,1005.67
2018-08-29T12:59:14.585Z,1005.57
2018-08-29T13:00:14.613Z,1005.59
2018-08-29T13:02:07.671Z,1005.51
2018-08-29T13:03:07.564Z,1005.47
2018-08-29T13:05:00.505Z,1005.43
2018-08-29T13:06:00.547Z,1005.46
2018-08-29T13:07:53.453Z,1005.36
2018-08-29T13:08:53.479Z,1005.38
2018-08-29T13:10:46.404Z,1005.31
2018-08-29T13:11:46.434Z,1005.28
2018-08-29T13:13:39.391Z,1005.22
2018-08-29T13:14:39.415Z,1005.19
2018-08-29T13:16:32.342Z,1005.20
2018-08-29T13:17:32.370Z,1005.19
2018-08-29T13:19:25.307Z,1005.17
2018-08-29T13:20:25.329Z,1005.24
2018-08-29T13:22:18.262Z,1005.23
2018-08-29T13:23:18.286Z,1005.22
2018-08-29T13:25:11.211Z,1005.12
2018-08-29T13:26:11.237Z,1005.05
2018-08-29T13:28:04.189Z,1005.05
2018-08-29T13:29:04.208Z,1005.01
2018-08-29T13:30:57.161Z,1004.98
2018-08-29T13:31:57.189Z,1005.02
2018-08-29T13:33:50.125Z,1005.02
2018-08-29T13:34:50.190Z,1005.01
2018-08-29T13:36:43.079Z,1005.09
2018-08-29T13:37:43.111Z,1005.07
2018-08-29T13:39:36.046Z,1005.05
2018-08-29T13:40:36.074Z,1005.00
2018-08-29T13:42:29.003Z,1005.01
2018-08-29T13:43:29.026Z,1004.99
2018-08-29T13:45:21.952Z,1004.97
2018-08-29T13:46:21.986Z,1004.95
2018-08-29T13:48:14.915Z,1004.94
2018-08-29T13:49:14.940Z,1004.95
2018-08-29T13:51:07.864Z,1004.97
2018-08-29T13:52:07.895Z,1004.99
2018-08-29T13:54:00.833Z,1004.96
2018-08-29T13:55:00.861Z,1004.96
2018-08-29T13:56:53.777Z,1004.96
2018-08-29T13:57:53.808Z,1004.95
2018-08-29T13:59:46.747Z,1004.97
2018-08-29T14:00:46.771Z,1004.99
2018-08-29T14:02:39.752Z,1005.01
2018-08-29T14:03:39.736Z,1005.03
2018-08-29T14:05:32.658Z,1005.03
2018-08-29T14:06:32.687Z,1005.03
2018-08-29T14:08:25.625Z,1005.09
2018-08-29T14:09:25.688Z,1005.06
2018-08-29T14:11:18.601Z,1005.06
2018-08-29T14:12:18.612Z,1005.05
2018-08-29T14:14:11.559Z,1005.06
2018-08-29T14:15:11.569Z,1005.06
2018-08-29T14:17:04.500Z,1005.07
2018-08-29T14:18:04.609Z,1005.03
2018-08-29T14:19:57.468Z,1005.08
2018-08-29T14:20:57.488Z,1005.10
2018-08-29T14:22:50.423Z,1005.14
2018-08-29T14:23:50.446Z,1005.16
2018-08-29T14:25:43.371Z,1005.15
2018-08-29T14:26:43.402Z,1005.15
2018-08-29T14:28:36.391Z,1005.21
2018-08-29T14:29:36.356Z,1005.19
2018-08-29T14:31:29.334Z,1005.17
2018-08-29T14:32:29.316Z,1005.21
2018-08-29T14:34:22.273Z,1005.20
2018-08-29T14:35:22.333Z,1005.24
2018-08-29T14:37:15.417Z,1005.28
2018-08-29T14:38:15.476Z,1005.28
2018-08-29T14:40:08.454Z,1005.28
2018-08-29T14:41:08.404Z,1005.31
2018-08-29T14:43:01.331Z,1005.34
2018-08-29T14:44:01.356Z,1005.35
2018-08-29T14:45:54.311Z,1005.36
2018-08-29T14:46:54.342Z,1005.41
2018-08-29T14:48:47.306Z,1005.40
2018-08-29T14:49:47.373Z,1005.36
2018-08-29T14:51:40.486Z,1005.48
2018-08-29T14:52:40.543Z,1005.52
2018-08-29T14:54:33.444Z,1005.50
2018-08-29T14:55:33.556Z,1005.58
2018-08-29T14:57:26.434Z,1005.51
2018-08-29T14:58:26.460Z,1005.52
2018-08-29T15:00:19.609Z,1005.54
2018-08-29T15:01:19.418Z,1005.57
2018-08-29T15:03:13.012Z,1005.59
2018-08-29T15:04:13.025Z,1005.60
2018-08-29T15:06:05.951Z,1005.58
2018-08-29T15:07:05.978Z,1005.60
2018-08-29T15:08:58.906Z,1005.60
2018-08-29T15:09:58.927Z,1005.65
2018-08-29T15:11:51.860Z,1005.65
2018-08-29T15:12:51.884Z,1005.64
2018-08-29T15:14:44.812Z,1005.66
2018-08-29T15:15:44.869Z,1005.70
2018-08-29T15:17:37.755Z,1005.64
2018-08-29T15:18:37.799Z,1005.63
2018-08-29T15:20:30.768Z,1005.67
2018-08-29T15:21:30.767Z,1005.70
2018-08-29T15:23:23.701Z,1005.70
2018-08-29T15:24:23.718Z,1005.67
2018-08-29T15:26:16.704Z,1005.63
2018-08-29T15:27:16.672Z,1005.59
2018-08-29T15:29:09.622Z,1005.58
2018-08-29T15:30:09.625Z,1005.54
2018-08-29T15:32:02.545Z,1005.56
2018-08-29T15:33:02.580Z,1005.57
2018-08-29T15:34:55.509Z,1005.59
2018-08-29T15:35:55.536Z,1005.55
2018-08-29T15:37:48.460Z,1005.56
2018-08-29T15:38:48.526Z,1005.57
2018-08-29T15:40:41.417Z,1005.61
2018-08-29T15:41:41.443Z,1005.64
2018-08-29T15:43:34.397Z,1005.65
2018-08-29T15:44:34.431Z,1005.66
2018-08-29T15:46:27.391Z,1005.60
2018-08-29T15:47:27.373Z,1005.61
2018-08-29T15:49:20.427Z,1005.63
2018-08-29T15:50:20.329Z,1005.60
2018-08-29T15:52:13.252Z,1005.64
2018-08-29T15:53:13.281Z,1005.63
2018-08-29T15:55:06.208Z,1005.69
2018-08-29T15:56:06.236Z,1005.68
2018-08-29T15:57:59.160Z,1005.67
2018-08-29T15:58:59.189Z,1005.74
2018-08-29T16:00:52.135Z,1005.73
2018-08-29T16:01:52.154Z,1005.77
2018-08-29T16:03:45.083Z,1005.69
2018-08-29T16:04:45.109Z,1005.75
2018-08-29T16:06:38.028Z,1005.74
2018-08-29T16:07:38.060Z,1005.76
2018-08-29T16:09:30.997Z,1005.78
2018-08-29T16:10:31.014Z,1005.79
2018-08-29T16:12:23.936Z,1005.77
2018-08-29T16:13:23.969Z,1005.78
2018-08-29T16:15:16.894Z,1005.77
2018-08-29T16:16:16.919Z,1005.77
2018-08-29T16:18:10.013Z,1005.74
2018-08-29T16:19:10.040Z,1005.74
2018-08-29T16:21:02.974Z,1005.76
2018-08-29T16:22:02.999Z,1005.74
2018-08-29T16:23:55.945Z,1005.81
2018-08-29T16:24:55.949Z,1005.85
2018-08-29T16:26:48.874Z,1005.88
2018-08-29T16:27:48.921Z,1005.87
2018-08-29T16:29:41.836Z,1005.89
2018-08-29T16:30:41.863Z,1005.93
2018-08-29T16:32:34.799Z,1006.00
2018-08-29T16:33:34.852Z,1006.03
2018-08-29T16:35:27.785Z,1006.12
2018-08-29T16:36:27.787Z,1006.21
2018-08-29T16:38:20.708Z,1006.33
2018-08-29T16:39:20.738Z,1006.41
2018-08-29T16:41:13.671Z,1006.68
2018-08-29T16:42:13.693Z,1006.74
2018-08-29T16:44:06.629Z,1006.83
2018-08-29T16:45:06.642Z,1006.77
2018-08-29T16:46:59.565Z,1006.91
2018-08-29T16:47:59.598Z,1006.92
2018-08-29T16:49:52.522Z,1007.00
2018-08-29T16:50:52.551Z,1007.08
2018-08-29T16:52:45.609Z,1007.04
2018-08-29T16:53:45.497Z,1007.01
2018-08-29T16:55:38.537Z,1006.98
2018-08-29T16:56:38.554Z,1006.92
2018-08-29T16:58:32.471Z,1006.88
2018-08-29T16:59:32.492Z,1006.87
2018-08-29T17:01:25.423Z,1006.85
2018-08-29T17:02:25.436Z,1006.81
2018-08-29T17:04:18.361Z,1006.81
2018-08-29T17:05:18.392Z,1006.80
2018-08-29T17:07:11.297Z,1006.81
2018-08-29T17:08:11.412Z,1006.82
2018-08-29T17:10:04.261Z,1006.82
2018-08-29T17:11:04.274Z,1006.79
2018-08-29T17:12:57.201Z,1006.71
2018-08-29T17:13:57.227Z,1006.73
2018-08-29T17:15:50.138Z,1006.73
2018-08-29T17:16:50.158Z,1006.75
2018-08-29T17:18:44.088Z,1006.73
2018-08-29T17:19:44.115Z,1006.74
2018-08-29T17:21:37.261Z,1006.76
2018-08-29T17:22:37.278Z,1006.80
2018-08-29T17:24:30.217Z,1006.81
2018-08-29T17:25:30.219Z,1006.79
2018-08-29T17:27:23.146Z,1006.81